sensor_id;sensor_type;location;lat;lon;timestamp;pressure;altitude;pressure_sealevel;temperature;humidity
28167;BME280;15455;53.376;-6.262;2022-11-04T00:01:26;100409.66;;;4.58;100.00
28167;BME280;15455;53.376;-6.262;2022-11-04T00:04:14;100405.22;;;4.49;100.00
28167;BME280;15455;53.376;-6.262;2022-11-04T00:07:00;100405.09;;;4.43;100.00
28167;BME280;15455;53.376;-6.262;2022-11-04T00:09:46;100407.53;;;4.34;100.00
28167;BME280;15455;53.376;-6.262;2022-11-04T00:12:31;100408.38;;;4.33;100.00
28167;BME280;15455;53.376;-6.262;2022-11-04T00:15:17;100416.06;;;4.30;100.00
28167;BME280;15455;53.376;-6.262;2022-11-04T00:18:21;100420.22;;;4.22;100.00
28167;BME280;15455;53.376;-6.262;2022-11-04T00:21:06;100428.69;;;4.14;100.00
28167;BME280;15455;53.376;-6.262;2022-11-04T00:24:11;100434.53;;;4.04;100.00
28167;BME280;15455;53.376;-6.262;2022-11-04T00:27:18;100441.91;;;3.86;100.00
28167;BME280;15455;53.376;-6.262;2022-11-04T00:30:23;100441.53;;;3.65;100.00
28167;BME280;15455;53.376;-6.262;2022-11-04T00:33:08;100459.47;;;3.61;100.00
28167;BME280;15455;53.376;-6.262;2022-11-04T00:36:12;100461.03;;;3.51;100.00
28167;BME280;15455;53.376;-6.262;2022-11-04T00:38:57;100467.59;;;3.37;100.00
28167;BME280;15455;53.376;-6.262;2022-11-04T00:41:43;100480.03;;;3.17;100.00
28167;BME280;15455;53.376;-6.262;2022-11-04T00:44:28;100475.06;;;2.89;100.00
28167;BME280;15455;53.376;-6.262;2022-11-04T00:47:13;100472.03;;;2.71;100.00
28167;BME280;15455;53.376;-6.262;2022-11-04T00:49:59;100479.34;;;2.54;100.00
28167;BME280;15455;53.376;-6.262;2022-11-04T00:52:45;100484.69;;;2.62;100.00
28167;BME280;15455;53.376;-6.262;2022-11-04T00:55:30;100483.22;;;2.71;100.00
28167;BME280;15455;53.376;-6.262;2022-11-04T00:58:16;100494.69;;;2.84;100.00
28167;BME280;15455;53.376;-6.262;2022-11-04T01:01:09;100505.28;;;2.95;100.00
28167;BME280;15455;53.376;-6.262;2022-11-04T01:03:55;100513.16;;;3.01;100.00
28167;BME280;15455;53.376;-6.262;2022-11-04T01:06:41;100511.66;;;3.09;100.00
28167;BME280;15455;53.376;-6.262;2022-11-04T01:09:26;100526.19;;;3.07;100.00
28167;BME280;15455;53.376;-6.262;2022-11-04T01:12:12;100533.81;;;3.03;100.00
28167;BME280;15455;53.376;-6.262;2022-11-04T01:14:59;100544.28;;;3.09;100.00
28167;BME280;15455;53.376;-6.262;2022-11-04T01:17:44;100555.72;;;3.20;100.00
28167;BME280;15455;53.376;-6.262;2022-11-04T01:20:31;100560.13;;;3.24;100.00
28167;BME280;15455;53.376;-6.262;2022-11-04T01:23:17;100561.00;;;3.25;100.00
28167;BME280;15455;53.376;-6.262;2022-11-04T01:26:10;100568.56;;;3.17;100.00
28167;BME280;15455;53.376;-6.262;2022-11-04T01:28:57;100577.16;;;3.18;100.00
28167;BME280;15455;53.376;-6.262;2022-11-04T01:31:43;100585.78;;;3.18;100.00
28167;BME280;15455;53.376;-6.262;2022-11-04T01:34:28;100594.13;;;3.08;100.00
28167;BME280;15455;53.376;-6.262;2022-11-04T01:37:13;100606.09;;;3.06;100.00
28167;BME280;15455;53.376;-6.262;2022-11-04T01:39:59;100612.81;;;2.99;100.00
28167;BME280;15455;53.376;-6.262;2022-11-04T01:42:44;100628.31;;;3.01;100.00
28167;BME280;15455;53.376;-6.262;2022-11-04T01:45:29;100632.50;;;2.97;100.00
28167;BME280;15455;53.376;-6.262;2022-11-04T01:48:29;100646.34;;;3.01;100.00
28167;BME280;15455;53.376;-6.262;2022-11-04T01:51:16;100648.09;;;3.02;100.00
28167;BME280;15455;53.376;-6.262;2022-11-04T01:54:03;100652.41;;;3.03;100.00
28167;BME280;15455;53.376;-6.262;2022-11-04T01:56:50;100660.19;;;3.04;100.00
28167;BME280;15455;53.376;-6.262;2022-11-04T01:59:38;100666.00;;;2.97;100.00
28167;BME280;15455;53.376;-6.262;2022-11-04T02:02:25;100662.53;;;2.95;100.00
28167;BME280;15455;53.376;-6.262;2022-11-04T02:05:10;100671.91;;;2.93;100.00
28167;BME280;15455;53.376;-6.262;2022-11-04T02:07:58;100665.81;;;2.89;100.00
28167;BME280;15455;53.376;-6.262;2022-11-04T02:10:59;100689.78;;;2.87;100.00
28167;BME280;15455;53.376;-6.262;2022-11-04T02:13:45;100704.59;;;2.94;100.00
28167;BME280;15455;53.376;-6.262;2022-11-04T02:16:38;100715.81;;;2.96;100.00
28167;BME280;15455;53.376;-6.262;2022-11-04T02:29:16;100743.22;;;2.92;100.00
28167;BME280;15455;53.376;-6.262;2022-11-04T02:35:21;100748.34;;;2.91;100.00
28167;BME280;15455;53.376;-6.262;2022-11-04T02:41:36;100753.31;;;2.85;100.00
28167;BME280;15455;53.376;-6.262;2022-11-04T02:44:37;100757.53;;;2.83;100.00
28167;BME280;15455;53.376;-6.262;2022-11-04T02:47:28;100757.53;;;2.83;100.00
28167;BME280;15455;53.376;-6.262;2022-11-04T02:53:32;100771.03;;;2.74;100.00
28167;BME280;15455;53.376;-6.262;2022-11-04T02:56:20;100778.72;;;2.72;100.00
28167;BME280;15455;53.376;-6.262;2022-11-04T02:59:12;100787.31;;;2.73;100.00
28167;BME280;15455;53.376;-6.262;2022-11-04T03:02:00;100794.97;;;2.70;100.00
28167;BME280;15455;53.376;-6.262;2022-11-04T03:04:50;100805.19;;;2.67;100.00
28167;BME280;15455;53.376;-6.262;2022-11-04T03:07:39;100818.75;;;2.61;100.00
28167;BME280;15455;53.376;-6.262;2022-11-04T03:10:35;100823.72;;;2.55;100.00
28167;BME280;15455;53.376;-6.262;2022-11-04T03:16:44;100823.66;;;2.53;100.00
28167;BME280;15455;53.376;-6.262;2022-11-04T03:19:56;100822.91;;;2.56;100.00
28167;BME280;15455;53.376;-6.262;2022-11-04T03:22:42;100820.22;;;2.53;100.00
28167;BME280;15455;53.376;-6.262;2022-11-04T03:25:32;100832.22;;;2.52;100.00
28167;BME280;15455;53.376;-6.262;2022-11-04T03:32:21;100831.94;;;2.43;100.00
28167;BME280;15455;53.376;-6.262;2022-11-04T03:34:45;100837.03;;;2.41;100.00
28167;BME280;15455;53.376;-6.262;2022-11-04T03:37:32;100836.00;;;2.36;100.00
28167;BME280;15455;53.376;-6.262;2022-11-04T03:40:19;100830.00;;;2.36;100.00
28167;BME280;15455;53.376;-6.262;2022-11-04T03:43:25;100836.19;;;2.42;100.00
28167;BME280;15455;53.376;-6.262;2022-11-04T03:46:12;100840.63;;;2.47;100.00
28167;BME280;15455;53.376;-6.262;2022-11-04T03:48:58;100850.94;;;2.47;100.00
28167;BME280;15455;53.376;-6.262;2022-11-04T03:51:44;100846.75;;;2.50;100.00
28167;BME280;15455;53.376;-6.262;2022-11-04T03:54:30;100845.09;;;2.52;100.00
28167;BME280;15455;53.376;-6.262;2022-11-04T03:58:30;100852.81;;;2.52;100.00
28167;BME280;15455;53.376;-6.262;2022-11-04T04:00:49;100857.94;;;2.51;100.00
28167;BME280;15455;53.376;-6.262;2022-11-04T04:03:43;100873.97;;;2.42;100.00
28167;BME280;15455;53.376;-6.262;2022-11-04T04:06:34;100881.78;;;2.45;100.00
28167;BME280;15455;53.376;-6.262;2022-11-04T04:09:36;100892.91;;;2.44;100.00
28167;BME280;15455;53.376;-6.262;2022-11-04T04:12:33;100891.19;;;2.43;100.00
28167;BME280;15455;53.376;-6.262;2022-11-04T04:15:24;100905.75;;;2.42;100.00
28167;BME280;15455;53.376;-6.262;2022-11-04T04:18:14;100905.78;;;2.44;100.00
28167;BME280;15455;53.376;-6.262;2022-11-04T04:21:04;100907.44;;;2.42;100.00
28167;BME280;15455;53.376;-6.262;2022-11-04T04:23:52;100905.69;;;2.41;100.00
28167;BME280;15455;53.376;-6.262;2022-11-04T04:26:58;100922.19;;;2.46;100.00
28167;BME280;15455;53.376;-6.262;2022-11-04T04:30:10;100929.06;;;2.46;100.00
28167;BME280;15455;53.376;-6.262;2022-11-04T04:33:08;100931.69;;;2.47;100.00
28167;BME280;15455;53.376;-6.262;2022-11-04T04:35:55;100942.78;;;2.46;100.00
28167;BME280;15455;53.376;-6.262;2022-11-04T04:38:41;100953.91;;;2.45;100.00
28167;BME280;15455;53.376;-6.262;2022-11-04T04:41:47;100960.00;;;2.47;100.00
28167;BME280;15455;53.376;-6.262;2022-11-04T04:44:51;100965.94;;;2.45;100.00
28167;BME280;15455;53.376;-6.262;2022-11-04T04:47:47;100969.28;;;2.42;100.00
28167;BME280;15455;53.376;-6.262;2022-11-04T04:50:36;100973.56;;;2.41;100.00
28167;BME280;15455;53.376;-6.262;2022-11-04T04:53:22;100969.22;;;2.40;100.00
28167;BME280;15455;53.376;-6.262;2022-11-04T04:56:08;100970.19;;;2.44;100.00
28167;BME280;15455;53.376;-6.262;2022-11-04T04:58:53;100976.13;;;2.41;100.00
28167;BME280;15455;53.376;-6.262;2022-11-04T05:01:39;100976.13;;;2.41;100.00
28167;BME280;15455;53.376;-6.262;2022-11-04T05:04:25;100986.44;;;2.41;100.00
28167;BME280;15455;53.376;-6.262;2022-11-04T05:07:10;100996.03;;;2.46;100.00
28167;BME280;15455;53.376;-6.262;2022-11-04T05:09:56;100999.47;;;2.46;100.00
28167;BME280;15455;53.376;-6.262;2022-11-04T05:12:42;101012.41;;;2.48;100.00
28167;BME280;15455;53.376;-6.262;2022-11-04T05:15:46;101015.03;;;2.49;100.00
28167;BME280;15455;53.376;-6.262;2022-11-04T05:18:32;101023.56;;;2.48;100.00
28167;BME280;15455;53.376;-6.262;2022-11-04T05:21:18;101024.47;;;2.49;100.00
28167;BME280;15455;53.376;-6.262;2022-11-04T05:24:03;101027.91;;;2.49;100.00
28167;BME280;15455;53.376;-6.262;2022-11-04T05:26:49;101027.84;;;2.48;100.00
28167;BME280;15455;53.376;-6.262;2022-11-04T05:29:35;101030.38;;;2.46;100.00
28167;BME280;15455;53.376;-6.262;2022-11-04T05:32:20;101039.69;;;2.42;100.00
28167;BME280;15455;53.376;-6.262;2022-11-04T05:35:06;101053.50;;;2.45;100.00
28167;BME280;15455;53.376;-6.262;2022-11-04T05:37:51;101048.34;;;2.45;100.00
28167;BME280;15455;53.376;-6.262;2022-11-04T05:40:39;101054.31;;;2.43;100.00
28167;BME280;15455;53.376;-6.262;2022-11-04T05:43:24;101057.66;;;2.41;100.00
28167;BME280;15455;53.376;-6.262;2022-11-04T05:46:09;101067.09;;;2.40;100.00
28167;BME280;15455;53.376;-6.262;2022-11-04T05:48:55;101075.63;;;2.39;100.00
28167;BME280;15455;53.376;-6.262;2022-11-04T05:51:40;101079.97;;;2.40;100.00
28167;BME280;15455;53.376;-6.262;2022-11-04T05:54:26;101083.38;;;2.39;100.00
28167;BME280;15455;53.376;-6.262;2022-11-04T05:57:12;101085.19;;;2.42;100.00
28167;BME280;15455;53.376;-6.262;2022-11-04T05:59:57;101082.66;;;2.43;100.00
28167;BME280;15455;53.376;-6.262;2022-11-04T06:02:42;101083.63;;;2.46;100.00
28167;BME280;15455;53.376;-6.262;2022-11-04T06:05:28;101088.81;;;2.47;100.00
28167;BME280;15455;53.376;-6.262;2022-11-04T06:08:14;101090.53;;;2.48;100.00
28167;BME280;15455;53.376;-6.262;2022-11-04T06:10:59;101092.38;;;2.51;100.00
28167;BME280;15455;53.376;-6.262;2022-11-04T06:13:45;101094.03;;;2.49;100.00
28167;BME280;15455;53.376;-6.262;2022-11-04T06:16:31;101096.69;;;2.52;100.00
28167;BME280;15455;53.376;-6.262;2022-11-04T06:19:16;101091.66;;;2.55;100.00
28167;BME280;15455;53.376;-6.262;2022-11-04T06:22:01;101096.91;;;2.58;100.00
28167;BME280;15455;53.376;-6.262;2022-11-04T06:24:48;101102.06;;;2.58;100.00
28167;BME280;15455;53.376;-6.262;2022-11-04T06:27:34;101104.69;;;2.59;100.00
28167;BME280;15455;53.376;-6.262;2022-11-04T06:30:20;101104.66;;;2.58;100.00
28167;BME280;15455;53.376;-6.262;2022-11-04T06:33:05;101097.66;;;2.55;100.00
28167;BME280;15455;53.376;-6.262;2022-11-04T06:35:51;101096.81;;;2.55;100.00
28167;BME280;15455;53.376;-6.262;2022-11-04T06:38:36;101098.69;;;2.59;100.00
28167;BME280;15455;53.376;-6.262;2022-11-04T06:41:22;101095.38;;;2.63;100.00
28167;BME280;15455;53.376;-6.262;2022-11-04T06:44:08;101090.41;;;2.68;100.00
28167;BME280;15455;53.376;-6.262;2022-11-04T06:46:53;101089.72;;;2.73;100.00
28167;BME280;15455;53.376;-6.262;2022-11-04T06:49:39;101099.28;;;2.76;100.00
28167;BME280;15455;53.376;-6.262;2022-11-04T06:52:24;101097.66;;;2.80;100.00
28167;BME280;15455;53.376;-6.262;2022-11-04T06:55:10;101104.53;;;2.79;100.00
28167;BME280;15455;53.376;-6.262;2022-11-04T06:57:55;101109.75;;;2.81;100.00
28167;BME280;15455;53.376;-6.262;2022-11-04T07:00:41;101114.84;;;2.79;100.00
28167;BME280;15455;53.376;-6.262;2022-11-04T07:03:26;101129.41;;;2.78;100.00
28167;BME280;15455;53.376;-6.262;2022-11-04T07:06:12;101135.47;;;2.79;100.00
28167;BME280;15455;53.376;-6.262;2022-11-04T07:08:59;101136.34;;;2.80;100.00
28167;BME280;15455;53.376;-6.262;2022-11-04T07:11:45;101148.31;;;2.77;100.00
28167;BME280;15455;53.376;-6.262;2022-11-04T07:14:31;101155.28;;;2.82;100.00
28167;BME280;15455;53.376;-6.262;2022-11-04T07:17:17;101152.06;;;2.87;100.00
28167;BME280;15455;53.376;-6.262;2022-11-04T07:20:03;101158.22;;;2.91;100.00
28167;BME280;15455;53.376;-6.262;2022-11-04T07:22:50;101158.97;;;2.88;100.00
28167;BME280;15455;53.376;-6.262;2022-11-04T07:25:37;101156.41;;;2.88;100.00
28167;BME280;15455;53.376;-6.262;2022-11-04T07:28:23;101150.22;;;2.83;100.00
28167;BME280;15455;53.376;-6.262;2022-11-04T07:31:11;101157.75;;;2.78;100.00
28167;BME280;15455;53.376;-6.262;2022-11-04T07:33:57;101164.47;;;2.73;100.00
28167;BME280;15455;53.376;-6.262;2022-11-04T07:36:42;101178.00;;;2.68;100.00
28167;BME280;15455;53.376;-6.262;2022-11-04T07:39:27;101178.81;;;2.67;100.00
28167;BME280;15455;53.376;-6.262;2022-11-04T07:42:13;101187.56;;;2.70;100.00
28167;BME280;15455;53.376;-6.262;2022-11-04T07:44:58;101180.44;;;2.63;100.00
28167;BME280;15455;53.376;-6.262;2022-11-04T07:47:43;101184.78;;;2.66;100.00
28167;BME280;15455;53.376;-6.262;2022-11-04T07:50:29;101184.03;;;2.68;100.00
28167;BME280;15455;53.376;-6.262;2022-11-04T07:53:15;101185.75;;;2.68;100.00
28167;BME280;15455;53.376;-6.262;2022-11-04T07:56:05;101190.09;;;2.69;100.00
28167;BME280;15455;53.376;-6.262;2022-11-04T07:58:51;101195.41;;;2.73;100.00
28167;BME280;15455;53.376;-6.262;2022-11-04T08:01:37;101192.22;;;2.81;100.00
28167;BME280;15455;53.376;-6.262;2022-11-04T08:04:22;101202.97;;;2.93;100.00
28167;BME280;15455;53.376;-6.262;2022-11-04T08:07:08;101209.22;;;3.00;100.00
28167;BME280;15455;53.376;-6.262;2022-11-04T08:09:54;101209.22;;;3.00;100.00
28167;BME280;15455;53.376;-6.262;2022-11-04T08:12:39;101212.66;;;3.00;100.00
28167;BME280;15455;53.376;-6.262;2022-11-04T08:15:25;101226.50;;;3.02;100.00
28167;BME280;15455;53.376;-6.262;2022-11-04T08:18:10;101228.69;;;3.16;100.00
28167;BME280;15455;53.376;-6.262;2022-11-04T08:20:56;101230.13;;;3.32;100.00
28167;BME280;15455;53.376;-6.262;2022-11-04T08:23:42;101243.56;;;3.47;100.00
28167;BME280;15455;53.376;-6.262;2022-11-04T08:26:28;101250.94;;;3.62;100.00
28167;BME280;15455;53.376;-6.262;2022-11-04T08:29:13;101253.94;;;3.74;100.00
28167;BME280;15455;53.376;-6.262;2022-11-04T08:31:59;101237.78;;;3.80;100.00
28167;BME280;15455;53.376;-6.262;2022-11-04T08:34:45;101230.97;;;3.82;100.00
28167;BME280;15455;53.376;-6.262;2022-11-04T08:37:30;101259.41;;;3.83;100.00
28167;BME280;15455;53.376;-6.262;2022-11-04T08:40:15;101264.47;;;3.80;100.00
28167;BME280;15455;53.376;-6.262;2022-11-04T08:43:01;101269.59;;;3.79;100.00
28167;BME280;15455;53.376;-6.262;2022-11-04T08:45:46;101274.03;;;3.83;100.00
28167;BME280;15455;53.376;-6.262;2022-11-04T08:48:36;101278.28;;;3.82;100.00
28167;BME280;15455;53.376;-6.262;2022-11-04T08:51:24;101268.97;;;3.86;100.00
28167;BME280;15455;53.376;-6.262;2022-11-04T08:54:10;101275.81;;;3.86;100.00
28167;BME280;15455;53.376;-6.262;2022-11-04T08:56:56;101267.25;;;3.87;100.00
28167;BME280;15455;53.376;-6.262;2022-11-04T08:59:42;101272.50;;;3.90;100.00
28167;BME280;15455;53.376;-6.262;2022-11-04T09:02:27;101271.84;;;3.95;100.00
28167;BME280;15455;53.376;-6.262;2022-11-04T09:05:13;101266.94;;;4.03;100.00
28167;BME280;15455;53.376;-6.262;2022-11-04T09:07:59;101270.53;;;4.08;100.00
28167;BME280;15455;53.376;-6.262;2022-11-04T09:10:46;101275.06;;;4.15;100.00
28167;BME280;15455;53.376;-6.262;2022-11-04T09:13:32;101289.94;;;4.23;100.00
28167;BME280;15455;53.376;-6.262;2022-11-04T09:16:24;101286.72;;;4.30;100.00
28167;BME280;15455;53.376;-6.262;2022-11-04T09:19:09;101294.66;;;4.36;100.00
28167;BME280;15455;53.376;-6.262;2022-11-04T09:21:55;101297.47;;;4.42;100.00
28167;BME280;15455;53.376;-6.262;2022-11-04T09:24:40;101298.72;;;4.55;100.00
28167;BME280;15455;53.376;-6.262;2022-11-04T09:27:26;101303.25;;;4.62;100.00
28167;BME280;15455;53.376;-6.262;2022-11-04T09:30:11;101304.44;;;4.74;100.00
28167;BME280;15455;53.376;-6.262;2022-11-04T09:32:57;101295.25;;;4.83;100.00
28167;BME280;15455;53.376;-6.262;2022-11-04T09:35:43;101297.25;;;4.92;100.00
28167;BME280;15455;53.376;-6.262;2022-11-04T09:38:28;101299.13;;;4.98;100.00
28167;BME280;15455;53.376;-6.262;2022-11-04T09:41:46;101298.56;;;5.08;100.00
28167;BME280;15455;53.376;-6.262;2022-11-04T09:44:46;101300.50;;;5.15;100.00
28167;BME280;15455;53.376;-6.262;2022-11-04T09:48:03;101301.69;;;5.27;100.00
28167;BME280;15455;53.376;-6.262;2022-11-04T09:50:53;101294.13;;;5.34;100.00
28167;BME280;15455;53.376;-6.262;2022-11-04T09:53:44;101281.41;;;5.42;100.00
28167;BME280;15455;53.376;-6.262;2022-11-04T09:56:34;101279.09;;;5.53;100.00
28167;BME280;15455;53.376;-6.262;2022-11-04T09:59:27;101267.16;;;5.58;100.00
28167;BME280;15455;53.376;-6.262;2022-11-04T10:11:34;101252.50;;;5.94;100.00
28167;BME280;15455;53.376;-6.262;2022-11-04T10:14:48;101257.16;;;6.05;100.00
28167;BME280;15455;53.376;-6.262;2022-11-04T10:17:57;101250.56;;;6.18;100.00
28167;BME280;15455;53.376;-6.262;2022-11-04T10:21:00;101256.91;;;6.31;100.00
28167;BME280;15455;53.376;-6.262;2022-11-04T10:27:20;101264.78;;;6.36;100.00
28167;BME280;15455;53.376;-6.262;2022-11-04T10:30:27;101266.63;;;6.40;100.00
28167;BME280;15455;53.376;-6.262;2022-11-04T10:33:27;101255.47;;;6.46;100.00
28167;BME280;15455;53.376;-6.262;2022-11-04T10:36:13;101262.56;;;6.53;100.00
28167;BME280;15455;53.376;-6.262;2022-11-04T10:39:05;101263.69;;;6.64;100.00
28167;BME280;15455;53.376;-6.262;2022-11-04T10:41:57;101257.97;;;6.79;100.00
28167;BME280;15455;53.376;-6.262;2022-11-04T10:44:45;101259.97;;;6.92;100.00
28167;BME280;15455;53.376;-6.262;2022-11-04T10:48:00;101253.22;;;7.01;100.00
28167;BME280;15455;53.376;-6.262;2022-11-04T10:50:52;101254.16;;;7.06;100.00
28167;BME280;15455;53.376;-6.262;2022-11-04T10:53:39;101251.59;;;7.07;100.00
28167;BME280;15455;53.376;-6.262;2022-11-04T10:56:49;101262.19;;;7.17;100.00
28167;BME280;15455;53.376;-6.262;2022-11-04T11:00:03;101275.41;;;7.30;100.00
28167;BME280;15455;53.376;-6.262;2022-11-04T11:02:49;101265.19;;;7.37;100.00
28167;BME280;15455;53.376;-6.262;2022-11-04T11:05:36;101256.72;;;7.47;100.00
28167;BME280;15455;53.376;-6.262;2022-11-04T11:08:30;101262.13;;;7.61;100.00
28167;BME280;15455;53.376;-6.262;2022-11-04T11:11:37;101253.72;;;7.74;100.00
28167;BME280;15455;53.376;-6.262;2022-11-04T11:17:17;101241.88;;;7.90;100.00
28167;BME280;15455;53.376;-6.262;2022-11-04T11:22:59;101249.06;;;8.07;100.00
28167;BME280;15455;53.376;-6.262;2022-11-04T11:25:50;101245.66;;;8.11;100.00
28167;BME280;15455;53.376;-6.262;2022-11-04T11:28:35;101234.47;;;8.16;100.00
28167;BME280;15455;53.376;-6.262;2022-11-04T11:31:23;101229.31;;;8.20;100.00
28167;BME280;15455;53.376;-6.262;2022-11-04T11:34:19;101233.75;;;8.27;100.00
28167;BME280;15455;53.376;-6.262;2022-11-04T11:37:19;101242.53;;;8.33;100.00
28167;BME280;15455;53.376;-6.262;2022-11-04T11:40:25;101246.19;;;8.45;100.00
28167;BME280;15455;53.376;-6.262;2022-11-04T11:43:22;101236.75;;;8.51;100.00
28167;BME280;15455;53.376;-6.262;2022-11-04T11:46:10;101242.81;;;8.52;100.00
28167;BME280;15455;53.376;-6.262;2022-11-04T11:49:02;101244.56;;;8.53;100.00
28167;BME280;15455;53.376;-6.262;2022-11-04T11:51:47;101239.38;;;8.53;100.00
28167;BME280;15455;53.376;-6.262;2022-11-04T11:54:36;101242.03;;;8.58;100.00
28167;BME280;15455;53.376;-6.262;2022-11-04T12:01:01;101236.16;;;8.71;100.00
28167;BME280;15455;53.376;-6.262;2022-11-04T12:03:57;101246.75;;;8.88;100.00
28167;BME280;15455;53.376;-6.262;2022-11-04T12:10:29;101241.75;;;9.03;100.00
28167;BME280;15455;53.376;-6.262;2022-11-04T12:13:47;101233.22;;;9.17;100.00
28167;BME280;15455;53.376;-6.262;2022-11-04T12:22:57;101228.16;;;9.31;100.00
28167;BME280;15455;53.376;-6.262;2022-11-04T12:32:04;101235.13;;;9.30;100.00
28167;BME280;15455;53.376;-6.262;2022-11-04T12:40:59;101219.53;;;9.36;100.00
28167;BME280;15455;53.376;-6.262;2022-11-04T12:44:34;101196.97;;;9.38;100.00
28167;BME280;15455;53.376;-6.262;2022-11-04T12:47:36;101202.31;;;9.49;100.00
28167;BME280;15455;53.376;-6.262;2022-11-04T12:56:47;101208.50;;;9.64;100.00
28167;BME280;15455;53.376;-6.262;2022-11-04T13:02:44;101212.25;;;9.95;100.00
28167;BME280;15455;53.376;-6.262;2022-11-04T13:05:56;101206.38;;;10.29;100.00
28167;BME280;15455;53.376;-6.262;2022-11-04T13:08:45;101204.81;;;10.60;100.00
28167;BME280;15455;53.376;-6.262;2022-11-04T13:14:58;101200.59;;;10.81;100.00
28167;BME280;15455;53.376;-6.262;2022-11-04T13:17:40;101204.91;;;10.77;100.00
28167;BME280;15455;53.376;-6.262;2022-11-04T13:20:38;101209.25;;;10.75;100.00
28167;BME280;15455;53.376;-6.262;2022-11-04T13:23:38;101199.66;;;10.63;100.00
28167;BME280;15455;53.376;-6.262;2022-11-04T13:26:25;101203.94;;;10.52;100.00
28167;BME280;15455;53.376;-6.262;2022-11-04T13:29:14;101209.16;;;10.52;100.00
28167;BME280;15455;53.376;-6.262;2022-11-04T13:32:41;101203.13;;;10.62;100.00
28167;BME280;15455;53.376;-6.262;2022-11-04T13:35:26;101201.38;;;10.64;100.00
28167;BME280;15455;53.376;-6.262;2022-11-04T13:38:24;101202.25;;;10.66;100.00
28167;BME280;15455;53.376;-6.262;2022-11-04T13:44:38;101210.84;;;10.43;100.00
28167;BME280;15455;53.376;-6.262;2022-11-04T13:47:43;101215.16;;;10.37;100.00
28167;BME280;15455;53.376;-6.262;2022-11-04T13:50:39;101200.41;;;10.42;100.00
28167;BME280;15455;53.376;-6.262;2022-11-04T13:56:39;101205.72;;;10.62;100.00
28167;BME280;15455;53.376;-6.262;2022-11-04T13:59:27;101221.47;;;10.77;100.00
28167;BME280;15455;53.376;-6.262;2022-11-04T14:08:14;101217.94;;;10.72;100.00
28167;BME280;15455;53.376;-6.262;2022-11-04T14:11:06;101215.31;;;10.69;100.00
28167;BME280;15455;53.376;-6.262;2022-11-04T14:14:01;101217.03;;;10.61;100.00
28167;BME280;15455;53.376;-6.262;2022-11-04T14:16:47;101213.53;;;10.54;100.00
28167;BME280;15455;53.376;-6.262;2022-11-04T14:19:56;101202.09;;;10.35;100.00
28167;BME280;15455;53.376;-6.262;2022-11-04T14:25:36;101214.97;;;10.17;100.00
28167;BME280;15455;53.376;-6.262;2022-11-04T14:28:26;101211.50;;;10.12;100.00
28167;BME280;15455;53.376;-6.262;2022-11-04T14:31:14;101212.34;;;10.11;100.00
28167;BME280;15455;53.376;-6.262;2022-11-04T14:34:29;101208.03;;;10.16;100.00
28167;BME280;15455;53.376;-6.262;2022-11-04T14:37:21;101217.59;;;10.17;100.00
28167;BME280;15455;53.376;-6.262;2022-11-04T14:40:23;101219.28;;;10.05;100.00
28167;BME280;15455;53.376;-6.262;2022-11-04T14:43:25;101220.97;;;10.03;100.00
28167;BME280;15455;53.376;-6.262;2022-11-04T14:46:34;101228.78;;;10.00;100.00
28167;BME280;15455;53.376;-6.262;2022-11-04T14:52:20;101228.75;;;9.96;100.00
28167;BME280;15455;53.376;-6.262;2022-11-04T14:58:30;101217.41;;;9.90;100.00
28167;BME280;15455;53.376;-6.262;2022-11-04T15:01:15;101216.50;;;9.85;100.00
28167;BME280;15455;53.376;-6.262;2022-11-04T15:04:11;101231.25;;;9.82;100.00
28167;BME280;15455;53.376;-6.262;2022-11-04T15:07:01;101235.56;;;9.77;100.00
28167;BME280;15455;53.376;-6.262;2022-11-04T15:09:48;101231.16;;;9.71;100.00
28167;BME280;15455;53.376;-6.262;2022-11-04T15:12:43;101240.69;;;9.70;100.00
28167;BME280;15455;53.376;-6.262;2022-11-04T15:15:38;101239.84;;;9.73;100.00
28167;BME280;15455;53.376;-6.262;2022-11-04T15:18:26;101228.59;;;9.79;100.00
28167;BME280;15455;53.376;-6.262;2022-11-04T15:21:14;101229.53;;;9.84;100.00
28167;BME280;15455;53.376;-6.262;2022-11-04T15:23:59;101229.53;;;9.85;100.00
28167;BME280;15455;53.376;-6.262;2022-11-04T15:26:51;101216.53;;;9.88;100.00
28167;BME280;15455;53.376;-6.262;2022-11-04T15:29:37;101215.66;;;9.88;100.00
28167;BME280;15455;53.376;-6.262;2022-11-04T15:32:23;101214.75;;;9.83;100.00
28167;BME280;15455;53.376;-6.262;2022-11-04T15:35:11;101219.09;;;9.82;100.00
28167;BME280;15455;53.376;-6.262;2022-11-04T15:37:59;101203.47;;;9.82;100.00
28167;BME280;15455;53.376;-6.262;2022-11-04T15:40:45;101208.69;;;9.84;100.00
28167;BME280;15455;53.376;-6.262;2022-11-04T15:43:31;101204.31;;;9.84;100.00
28167;BME280;15455;53.376;-6.262;2022-11-04T15:46:18;101206.94;;;9.84;100.00
28167;BME280;15455;53.376;-6.262;2022-11-04T15:49:05;101211.28;;;9.82;100.00
28167;BME280;15455;53.376;-6.262;2022-11-04T15:51:54;101219.91;;;9.75;100.00
28167;BME280;15455;53.376;-6.262;2022-11-04T15:54:54;101221.59;;;9.73;100.00
28167;BME280;15455;53.376;-6.262;2022-11-04T15:57:42;101218.09;;;9.68;100.00
28167;BME280;15455;53.376;-6.262;2022-11-04T16:00:29;101211.16;;;9.68;100.00
28167;BME280;15455;53.376;-6.262;2022-11-04T16:03:17;101212.00;;;9.67;100.00
28167;BME280;15455;53.376;-6.262;2022-11-04T16:06:06;101218.03;;;9.63;100.00
28167;BME280;15455;53.376;-6.262;2022-11-04T16:09:25;101223.22;;;9.60;100.00
28167;BME280;15455;53.376;-6.262;2022-11-04T16:12:25;101223.16;;;9.52;100.00
28167;BME280;15455;53.376;-6.262;2022-11-04T16:21:13;101214.31;;;9.33;100.00
28167;BME280;15455;53.376;-6.262;2022-11-04T16:24:18;101209.06;;;9.30;100.00
28167;BME280;15455;53.376;-6.262;2022-11-04T16:27:17;101205.53;;;9.25;100.00
28167;BME280;15455;53.376;-6.262;2022-11-04T16:30:18;101202.88;;;9.20;100.00